createdAt,value
2022-11-02T00:00:41.535Z,10.70
2022-11-02T00:03:28.754Z,10.80
2022-11-02T00:05:55.946Z,10.90
2022-11-02T00:08:23.068Z,11.00
2022-11-02T00:10:50.602Z,11.10
2022-11-02T00:13:22.397Z,11.20
2022-11-02T00:15:52.377Z,11.30
2022-11-02T00:18:19.476Z,11.30
2022-11-02T00:20:46.785Z,11.40
2022-11-02T00:23:15.259Z,11.50
2022-11-02T00:25:45.930Z,11.50
2022-11-02T00:28:15.603Z,11.60
2022-11-02T00:30:43.525Z,11.60
2022-11-02T00:33:10.878Z,11.70
2022-11-02T00:35:39.147Z,11.80
2022-11-02T00:38:06.525Z,11.80
2022-11-02T00:40:34.061Z,11.80
2022-11-02T00:43:01.320Z,11.90
2022-11-02T00:45:28.686Z,11.90
2022-11-02T00:47:58.203Z,11.90
2022-11-02T00:50:25.687Z,12.00
2022-11-02T00:52:52.915Z,12.00
2022-11-02T00:55:20.192Z,12.00
2022-11-02T00:57:47.368Z,12.00
2022-11-02T01:00:17.528Z,12.00
2022-11-02T01:02:44.631Z,12.00
2022-11-02T01:05:14.422Z,12.10
2022-11-02T01:07:41.676Z,12.10
2022-11-02T01:10:10.771Z,12.10
2022-11-02T01:12:40.750Z,12.00
2022-11-02T01:15:10.865Z,12.00
2022-11-02T01:17:38.022Z,11.90
2022-11-02T01:20:08.398Z,11.80
2022-11-02T01:22:35.691Z,11.60
2022-11-02T01:25:03.198Z,11.50
2022-11-02T01:27:32.678Z,11.50
2022-11-02T01:30:02.645Z,11.40
2022-11-02T01:32:32.680Z,11.30
2022-11-02T01:34:59.886Z,11.30
2022-11-02T01:37:29.543Z,11.20
2022-11-02T01:39:57.045Z,11.10
2022-11-02T01:42:26.920Z,11.10
2022-11-02T01:44:54.500Z,11.00
2022-11-02T01:47:29.632Z,10.90
2022-11-02T01:50:26.255Z,10.90
2022-11-02T01:52:54.327Z,10.80
2022-11-02T01:55:27.753Z,10.80
2022-11-02T01:58:05.011Z,10.80
2022-11-02T02:00:33.160Z,10.80
2022-11-02T02:03:10.009Z,10.70
2022-11-02T02:05:57.974Z,10.70
2022-11-02T02:08:26.886Z,10.60
2022-11-02T02:10:58.127Z,10.60
2022-11-02T02:13:27.321Z,10.60
2022-11-02T02:16:15.731Z,10.60
2022-11-02T02:18:55.848Z,10.60
2022-11-02T02:21:43.967Z,10.60
2022-11-02T02:24:18.590Z,10.50
2022-11-02T02:27:00.771Z,10.50
2022-11-02T02:29:49.360Z,10.50
2022-11-02T02:32:22.484Z,10.40
2022-11-02T02:35:01.345Z,10.30
2022-11-02T02:37:39.736Z,10.20
2022-11-02T02:40:23.316Z,10.10
2022-11-02T02:42:59.101Z,10.10
2022-11-02T02:45:44.540Z,10.10
2022-11-02T02:48:19.312Z,10.00
2022-11-02T02:50:54.442Z,10.00
2022-11-02T02:53:28.272Z,10.00
2022-11-02T02:55:57.532Z,9.90
2022-11-02T02:58:31.201Z,9.90
2022-11-02T03:03:44.417Z,9.80
2022-11-02T03:06:14.772Z,9.80
2022-11-02T03:08:48.006Z,9.80
2022-11-02T03:11:20.696Z,9.80
2022-11-02T03:14:07.553Z,9.70
2022-11-02T03:16:44.373Z,9.70
2022-11-02T03:19:28.792Z,9.70
2022-11-02T03:22:02.894Z,9.60
2022-11-02T03:25:01.782Z,9.60
2022-11-02T03:27:29.273Z,9.60
2022-11-02T03:30:03.412Z,9.50
2022-11-02T03:32:41.463Z,9.50
2022-11-02T03:35:19.170Z,9.40
2022-11-02T03:38:00.389Z,9.50
2022-11-02T03:40:33.156Z,9.50
2022-11-02T03:43:04.780Z,9.40
2022-11-02T03:45:38.313Z,9.40
2022-11-02T03:48:11.382Z,9.30
2022-11-02T03:50:43.673Z,9.30
2022-11-02T03:53:17.845Z,9.30
2022-11-02T03:55:55.774Z,9.30
2022-11-02T03:58:25.832Z,9.30
2022-11-02T04:01:02.895Z,9.20
2022-11-02T04:03:38.270Z,9.20
2022-11-02T04:06:05.301Z,9.20
2022-11-02T04:08:32.685Z,9.20
2022-11-02T04:10:59.783Z,9.20
2022-11-02T04:13:29.426Z,9.20
2022-11-02T04:15:56.860Z,9.20
2022-11-02T04:18:23.888Z,9.20
2022-11-02T04:20:53.861Z,9.20
2022-11-02T04:23:23.462Z,9.20
2022-11-02T04:25:57.534Z,9.20
2022-11-02T04:28:27.057Z,9.20
2022-11-02T04:30:54.333Z,9.10
2022-11-02T04:33:23.687Z,9.10
2022-11-02T04:35:50.908Z,9.10
2022-11-02T04:38:20.416Z,9.10
2022-11-02T04:40:47.449Z,9.10
2022-11-02T04:43:14.975Z,9.10
2022-11-02T04:45:42.011Z,9.00
2022-11-02T04:48:10.271Z,9.10
2022-11-02T04:50:39.709Z,9.00
2022-11-02T04:53:06.946Z,9.00
2022-11-02T04:55:34.289Z,9.00
2022-11-02T04:58:01.957Z,9.00
2022-11-02T05:00:29.360Z,9.00
2022-11-02T05:02:56.709Z,9.00
2022-11-02T05:05:23.930Z,9.10
2022-11-02T05:07:51.409Z,9.00
2022-11-02T05:10:21.045Z,8.90
2022-11-02T05:12:48.574Z,8.90
2022-11-02T05:15:15.689Z,9.00
2022-11-02T05:17:47.886Z,9.00
2022-11-02T05:20:15.654Z,9.10
2022-11-02T05:22:43.075Z,9.20
2022-11-02T05:25:11.039Z,9.10
2022-11-02T05:27:38.871Z,9.00
2022-11-02T05:30:06.758Z,9.00
2022-11-02T05:32:36.427Z,8.90
2022-11-02T05:35:04.291Z,8.90
2022-11-02T05:37:31.559Z,8.90
2022-11-02T05:39:58.864Z,8.90
2022-11-02T05:42:26.230Z,8.90
2022-11-02T05:44:55.716Z,9.00
2022-11-02T05:47:23.007Z,9.00
2022-11-02T05:49:52.420Z,9.10
2022-11-02T05:52:19.689Z,9.10
2022-11-02T05:54:46.757Z,9.20
2022-11-02T05:57:14.325Z,9.20
2022-11-02T05:59:43.823Z,9.30
2022-11-02T06:02:14.194Z,9.60
2022-11-02T06:04:43.566Z,10.00
2022-11-02T06:07:10.788Z,10.60
2022-11-02T06:09:40.056Z,11.30
2022-11-02T06:12:07.857Z,12.00
2022-11-02T06:14:37.124Z,12.50
2022-11-02T06:17:04.362Z,13.30
2022-11-02T06:19:31.492Z,13.80
2022-11-02T06:22:01.572Z,14.60
2022-11-02T06:24:28.639Z,15.40
2022-11-02T06:26:56.027Z,16.20
2022-11-02T06:29:25.411Z,16.40
2022-11-02T06:31:55.188Z,15.90
2022-11-02T06:34:24.588Z,15.50
2022-11-02T06:36:54.241Z,15.80
2022-11-02T06:39:21.249Z,16.50
2022-11-02T06:41:48.612Z,17.60
2022-11-02T06:44:15.611Z,18.80
2022-11-02T06:46:42.887Z,19.90
2022-11-02T06:49:10.229Z,20.90
2022-11-02T06:51:37.473Z,21.80
2022-11-02T06:54:08.424Z,22.60
2022-11-02T06:56:38.801Z,23.90
2022-11-02T06:59:05.770Z,25.30
2022-11-02T07:01:33.128Z,26.40
2022-11-02T07:04:03.122Z,27.30
2022-11-02T07:06:30.430Z,28.00
2022-11-02T07:08:59.676Z,28.20
2022-11-02T07:11:29.548Z,28.70
2022-11-02T07:13:58.915Z,28.90
2022-11-02T07:16:26.135Z,29.10
2022-11-02T07:18:53.197Z,29.70
2022-11-02T07:23:52.366Z,31.00
2022-11-02T07:26:20.052Z,31.10
2022-11-02T07:28:47.179Z,31.80
2022-11-02T07:31:17.068Z,31.80
2022-11-02T07:33:46.759Z,32.50
2022-11-02T07:36:13.998Z,33.50
2022-11-02T07:38:41.807Z,34.10
2022-11-02T07:41:11.766Z,34.80
2022-11-02T07:43:41.454Z,35.40
2022-11-02T07:46:13.721Z,35.90
2022-11-02T07:48:40.733Z,36.70
2022-11-02T07:51:08.276Z,37.20
2022-11-02T07:53:36.691Z,37.80
2022-11-02T07:56:06.738Z,38.00
2022-11-02T07:58:33.830Z,38.10
2022-11-02T08:01:01.975Z,38.30
2022-11-02T08:03:29.601Z,38.60
2022-11-02T08:06:01.610Z,38.90
2022-11-02T08:08:32.308Z,38.50
2022-11-02T08:11:07.756Z,38.60
2022-11-02T08:13:38.244Z,38.90
2022-11-02T08:16:06.121Z,38.90
2022-11-02T08:18:53.398Z,39.20
2022-11-02T08:21:20.586Z,39.20
2022-11-02T08:23:47.823Z,39.60
2022-11-02T08:26:17.093Z,39.70
2022-11-02T08:28:44.486Z,40.20
2022-11-02T08:31:15.305Z,40.80
2022-11-02T08:33:47.791Z,41.50
2022-11-02T08:36:14.852Z,41.20
2022-11-02T08:38:44.482Z,41.80
2022-11-02T08:41:13.999Z,41.90
2022-11-02T08:43:41.492Z,41.80
2022-11-02T08:46:14.831Z,42.30
2022-11-02T08:48:43.292Z,42.30
2022-11-02T08:51:12.839Z,42.90
2022-11-02T08:53:40.189Z,43.00
2022-11-02T08:56:09.738Z,43.10
2022-11-02T08:58:39.501Z,43.40
2022-11-02T09:01:06.484Z,43.90
2022-11-02T09:03:36.492Z,44.30
2022-11-02T09:06:03.509Z,44.60
2022-11-02T09:08:33.064Z,44.70
2022-11-02T09:11:02.528Z,44.40
2022-11-02T09:13:32.420Z,43.80
2022-11-02T09:16:00.637Z,43.40
2022-11-02T09:18:30.669Z,43.40
2022-11-02T09:21:01.194Z,43.00
2022-11-02T09:23:28.799Z,43.00
2022-11-02T09:25:55.760Z,43.30
2022-11-02T09:28:23.110Z,43.60
2022-11-02T09:30:50.322Z,43.90
2022-11-02T09:33:18.075Z,43.50
2022-11-02T09:35:47.677Z,42.90
2022-11-02T09:38:15.904Z,43.00
2022-11-02T09:41:04.663Z,42.80
2022-11-02T09:43:38.716Z,43.20
2022-11-02T09:46:11.038Z,43.90
2022-11-02T09:48:41.024Z,43.80
2022-11-02T09:51:18.699Z,43.90
2022-11-02T09:54:05.048Z,43.50
2022-11-02T09:56:32.990Z,43.50
2022-11-02T09:59:13.084Z,43.70
2022-11-02T10:02:00.344Z,43.50
2022-11-02T10:04:53.677Z,42.80
2022-11-02T10:07:26.706Z,42.60
2022-11-02T10:10:03.070Z,42.90
2022-11-02T10:13:12.809Z,42.60
2022-11-02T10:15:46.222Z,42.10
2022-11-02T10:18:34.036Z,42.20
2022-11-02T10:21:14.331Z,42.00
2022-11-02T10:23:54.300Z,41.60
2022-11-02T10:26:27.988Z,41.60
2022-11-02T10:29:17.221Z,41.20
2022-11-02T10:31:45.477Z,41.10
2022-11-02T10:34:27.138Z,41.20
2022-11-02T10:37:03.810Z,41.00
2022-11-02T10:40:02.708Z,40.80
2022-11-02T10:42:45.368Z,40.40
2022-11-02T10:45:28.834Z,39.70
2022-11-02T10:48:27.564Z,39.90
2022-11-02T10:51:20.900Z,38.90
2022-11-02T10:53:55.288Z,36.90
2022-11-02T10:56:33.484Z,36.80
2022-11-02T10:59:16.705Z,37.20
2022-11-02T11:01:58.482Z,37.40
2022-11-02T11:04:28.249Z,36.80
2022-11-02T11:06:56.484Z,35.50
2022-11-02T11:09:26.886Z,34.90
2022-11-02T11:11:56.357Z,33.10
2022-11-02T11:20:36.968Z,26.50
2022-11-02T11:23:09.563Z,24.90
2022-11-02T11:25:40.188Z,23.70
2022-11-02T11:28:29.521Z,22.80
2022-11-02T11:31:16.391Z,22.20
2022-11-02T11:33:51.907Z,21.50
2022-11-02T11:39:03.323Z,20.50
2022-11-02T11:41:31.899Z,20.20
2022-11-02T11:44:01.585Z,19.80
2022-11-02T11:46:50.635Z,19.60
2022-11-02T11:52:31.557Z,18.90
2022-11-02T11:55:24.094Z,18.70
2022-11-02T11:58:12.995Z,18.60
2022-11-02T12:00:42.710Z,18.50
2022-11-02T12:03:13.748Z,18.30
2022-11-02T12:06:01.917Z,18.30
2022-11-02T12:08:37.889Z,18.10
2022-11-02T12:11:20.623Z,18.00
2022-11-02T12:14:00.044Z,18.00
2022-11-02T12:17:01.672Z,18.00
2022-11-02T12:19:50.457Z,18.00
2022-11-02T12:22:55.312Z,17.90
2022-11-02T12:25:54.224Z,17.80
2022-11-02T12:28:44.406Z,17.70
2022-11-02T12:31:32.623Z,17.80
2022-11-02T12:34:33.581Z,17.80
2022-11-02T12:37:35.767Z,17.80
2022-11-02T12:40:14.617Z,17.80
2022-11-02T12:42:55.042Z,17.90
2022-11-02T12:45:41.435Z,17.90
2022-11-02T12:48:19.949Z,17.90
2022-11-02T12:51:24.405Z,17.90
2022-11-02T12:53:59.425Z,17.90
2022-11-02T12:56:46.572Z,18.00
2022-11-02T12:59:24.343Z,18.10
2022-11-02T13:02:15.144Z,18.20
2022-11-02T13:05:12.603Z,18.10
2022-11-02T13:07:54.859Z,18.00
2022-11-02T13:10:53.473Z,18.00
2022-11-02T13:13:33.264Z,17.80
2022-11-02T13:16:02.840Z,17.80
2022-11-02T13:18:41.960Z,17.70
2022-11-02T13:21:15.660Z,17.60
2022-11-02T13:23:53.714Z,17.60
2022-11-02T13:26:38.713Z,17.60
2022-11-02T13:29:28.946Z,17.60
2022-11-02T13:32:03.978Z,17.70
2022-11-02T13:34:43.512Z,17.70
2022-11-02T13:37:30.153Z,17.70
2022-11-02T13:40:04.953Z,17.70
2022-11-02T13:43:14.298Z,17.70
2022-11-02T13:46:06.053Z,17.70
2022-11-02T13:48:59.178Z,17.70
2022-11-02T13:51:42.809Z,17.60
2022-11-02T13:54:22.464Z,17.40
2022-11-02T13:56:55.785Z,17.10
2022-11-02T13:59:26.401Z,16.90
2022-11-02T14:01:58.225Z,16.70
2022-11-02T14:04:28.977Z,16.50
2022-11-02T14:07:02.568Z,16.30
2022-11-02T14:09:45.988Z,16.10
2022-11-02T14:12:27.385Z,15.90
2022-11-02T14:15:12.988Z,15.80
2022-11-02T14:17:55.545Z,15.70
2022-11-02T14:20:33.060Z,15.60
2022-11-02T14:23:09.747Z,15.50
2022-11-02T14:25:45.984Z,15.50
2022-11-02T14:28:22.723Z,15.40
2022-11-02T14:31:05.059Z,15.40
2022-11-02T14:33:39.145Z,15.40
2022-11-02T14:36:14.495Z,15.40
2022-11-02T14:41:49.082Z,15.30
2022-11-02T14:44:44.366Z,15.20
2022-11-02T14:47:19.785Z,15.10
2022-11-02T14:49:53.200Z,15.10
2022-11-02T14:52:20.250Z,15.20
2022-11-02T14:54:59.635Z,15.20
2022-11-02T14:57:38.957Z,15.10
2022-11-02T15:00:21.606Z,15.10
2022-11-02T15:02:49.847Z,15.10
2022-11-02T15:05:25.883Z,15.00
2022-11-02T15:08:01.880Z,14.90
2022-11-02T15:10:32.430Z,14.80
2022-11-02T15:13:18.598Z,14.70
2022-11-02T15:15:52.205Z,14.70
2022-11-02T15:18:38.658Z,14.70
2022-11-02T15:21:12.264Z,14.60
2022-11-02T15:26:41.826Z,14.40
2022-11-02T15:29:36.893Z,14.30
2022-11-02T15:32:10.941Z,14.20
2022-11-02T15:34:43.779Z,14.10
2022-11-02T15:37:27.634Z,14.10
2022-11-02T15:40:11.646Z,14.00
2022-11-02T15:43:14.392Z,13.90
2022-11-02T15:45:50.483Z,13.90
2022-11-02T15:48:35.906Z,13.80
2022-11-02T15:51:09.099Z,13.80
2022-11-02T15:53:57.535Z,13.80
2022-11-02T15:56:43.532Z,13.80
2022-11-02T15:59:46.789Z,13.80
2022-11-02T16:02:31.810Z,13.70
2022-11-02T16:05:05.749Z,13.70
2022-11-02T16:07:50.202Z,13.60
2022-11-02T16:10:29.645Z,13.60
2022-11-02T16:13:18.467Z,13.50
2022-11-02T16:15:47.523Z,13.40
2022-11-02T16:18:30.429Z,13.40
2022-11-02T16:21:00.655Z,13.40
2022-11-02T16:23:31.431Z,13.30
2022-11-02T16:26:01.336Z,13.20
2022-11-02T16:28:29.958Z,13.20
2022-11-02T16:31:17.976Z,13.10
2022-11-02T16:33:49.185Z,13.10
2022-11-02T16:36:25.636Z,12.90
2022-11-02T16:39:01.569Z,12.90
2022-11-02T16:41:36.406Z,12.80
2022-11-02T16:44:10.912Z,12.80
2022-11-02T16:46:42.817Z,12.90
2022-11-02T16:49:23.968Z,12.90
2022-11-02T16:51:53.404Z,12.90
2022-11-02T16:54:40.879Z,13.00
2022-11-02T16:57:18.204Z,13.10
2022-11-02T16:59:59.682Z,13.10
2022-11-02T17:02:32.251Z,13.20
2022-11-02T17:05:04.513Z,13.20
2022-11-02T17:07:40.408Z,13.20
2022-11-02T17:10:08.749Z,13.20
2022-11-02T17:12:42.511Z,13.20
2022-11-02T17:15:18.163Z,13.20
2022-11-02T17:17:45.693Z,13.20
2022-11-02T17:20:13.082Z,13.20
2022-11-02T17:23:04.343Z,13.20
2022-11-02T17:25:32.956Z,13.10
2022-11-02T17:28:23.224Z,13.00
2022-11-02T17:30:52.933Z,12.90
2022-11-02T17:33:26.439Z,12.80
2022-11-02T17:35:54.512Z,12.70
2022-11-02T17:38:27.296Z,12.60
2022-11-02T17:41:00.535Z,12.60
2022-11-02T17:43:28.202Z,12.50
2022-11-02T17:45:56.383Z,12.50
2022-11-02T17:48:24.096Z,12.40
2022-11-02T17:50:56.366Z,12.30
2022-11-02T17:53:24.496Z,12.30
2022-11-02T17:55:52.035Z,12.20
2022-11-02T17:58:19.022Z,12.20
2022-11-02T18:00:46.558Z,12.10
2022-11-02T18:03:18.321Z,12.10
2022-11-02T18:05:49.502Z,12.00
2022-11-02T18:08:18.654Z,12.00
2022-11-02T18:10:47.656Z,11.90
2022-11-02T18:13:20.630Z,11.90
2022-11-02T18:15:48.577Z,11.90
2022-11-02T18:18:15.611Z,11.80
2022-11-02T18:20:42.934Z,11.80
2022-11-02T18:23:16.064Z,11.80
2022-11-02T18:25:43.389Z,11.70
2022-11-02T18:28:10.775Z,11.70
2022-11-02T18:30:42.336Z,11.60
2022-11-02T18:33:13.700Z,11.60
2022-11-02T18:35:42.586Z,11.50
2022-11-02T18:38:09.844Z,11.50
2022-11-02T18:40:37.141Z,11.40
2022-11-02T18:43:04.689Z,11.30
2022-11-02T18:45:32.372Z,11.30
2022-11-02T18:48:01.840Z,11.20
2022-11-02T18:50:29.550Z,11.20
2022-11-02T18:52:56.551Z,11.10
2022-11-02T18:55:23.853Z,11.10
2022-11-02T18:57:53.589Z,11.10
2022-11-02T19:00:21.051Z,11.00
2022-11-02T19:02:50.513Z,11.00
2022-11-02T19:05:18.248Z,10.90
2022-11-02T19:07:45.249Z,10.90
2022-11-02T19:10:14.528Z,10.90
2022-11-02T19:12:41.990Z,10.90
2022-11-02T19:15:11.514Z,10.80
2022-11-02T19:17:41.248Z,10.80
2022-11-02T19:20:08.965Z,10.80
2022-11-02T19:22:36.325Z,10.80
2022-11-02T19:25:03.599Z,10.80
2022-11-02T19:27:31.490Z,10.70
2022-11-02T19:30:00.810Z,10.70
2022-11-02T19:32:30.391Z,10.60
2022-11-02T19:35:00.201Z,10.60
2022-11-02T19:37:31.871Z,10.50
2022-11-02T19:40:01.755Z,10.40
2022-11-02T19:42:33.656Z,10.40
2022-11-02T19:45:00.734Z,10.30
2022-11-02T19:47:31.407Z,10.30
2022-11-02T19:49:58.402Z,10.30
2022-11-02T19:52:26.988Z,10.20
2022-11-02T19:54:54.479Z,10.20
2022-11-02T19:57:21.833Z,10.10
2022-11-02T19:59:48.781Z,10.10
2022-11-02T20:02:16.377Z,10.10
2022-11-02T20:04:45.043Z,10.00
2022-11-02T20:07:12.442Z,10.00
2022-11-02T20:09:39.701Z,10.00
2022-11-02T20:12:07.408Z,10.00
2022-11-02T20:14:34.519Z,10.00
2022-11-02T20:17:25.306Z,10.00
2022-11-02T20:19:49.127Z,10.00
2022-11-02T20:22:16.876Z,9.90
2022-11-02T20:24:46.197Z,9.90
2022-11-02T20:27:13.487Z,9.80
2022-11-02T20:29:40.924Z,9.80
2022-11-02T20:32:08.233Z,9.80
2022-11-02T20:34:35.229Z,9.80
2022-11-02T20:37:03.381Z,9.80
2022-11-02T20:39:30.621Z,9.80
2022-11-02T20:41:57.926Z,9.80
2022-11-02T20:44:27.689Z,9.70
2022-11-02T20:46:57.452Z,9.70
2022-11-02T20:49:49.309Z,9.70
2022-11-02T20:52:17.265Z,9.70
2022-11-02T20:54:44.394Z,9.70
2022-11-02T20:57:11.656Z,9.70
2022-11-02T20:59:41.889Z,9.60
2022-11-02T21:02:11.267Z,9.50
2022-11-02T21:04:38.381Z,9.50
2022-11-02T21:07:05.811Z,9.40
2022-11-02T21:09:32.923Z,9.20
2022-11-02T21:12:00.265Z,9.20
2022-11-02T21:14:27.428Z,9.10
2022-11-02T21:16:54.471Z,9.10
2022-11-02T21:19:21.781Z,9.00
2022-11-02T21:21:49.084Z,9.00
2022-11-02T21:24:16.439Z,8.90
2022-11-02T21:26:43.453Z,8.90
2022-11-02T21:29:10.892Z,9.00
2022-11-02T21:31:38.027Z,9.00
2022-11-02T21:34:05.295Z,9.10
2022-11-02T21:36:32.377Z,9.10
2022-11-02T21:39:01.945Z,9.00
2022-11-02T21:41:31.517Z,9.00
2022-11-02T21:43:58.969Z,8.90
2022-11-02T21:46:25.998Z,8.80
2022-11-02T21:48:55.075Z,8.80
2022-11-02T21:51:24.681Z,8.70
2022-11-02T21:53:52.118Z,8.60
2022-11-02T21:56:24.685Z,8.50
2022-11-02T21:58:55.330Z,8.50
2022-11-02T22:01:27.919Z,8.50
2022-11-02T22:03:55.469Z,8.40
2022-11-02T22:06:25.913Z,8.30
2022-11-02T22:08:56.069Z,8.30
2022-11-02T22:11:24.803Z,8.20
2022-11-02T22:13:52.805Z,8.20
2022-11-02T22:16:26.806Z,8.20
2022-11-02T22:19:07.364Z,8.10
2022-11-02T22:21:36.415Z,8.10
2022-11-02T22:24:07.464Z,8.10
2022-11-02T22:26:36.075Z,8.00
2022-11-02T22:29:06.156Z,8.00
2022-11-02T22:31:35.621Z,7.90
2022-11-02T22:34:06.917Z,7.80
2022-11-02T22:36:37.986Z,7.80
2022-11-02T22:39:10.102Z,7.80
2022-11-02T22:41:45.646Z,7.70
2022-11-02T22:44:14.238Z,7.70
2022-11-02T22:46:43.942Z,7.70
2022-11-02T22:49:13.203Z,7.60
2022-11-02T22:51:43.655Z,7.60
2022-11-02T22:54:15.234Z,7.60
2022-11-02T22:56:43.446Z,7.60
2022-11-02T22:59:11.215Z,7.60
2022-11-02T23:01:39.182Z,7.50
2022-11-02T23:04:11.649Z,7.60
2022-11-02T23:06:41.260Z,7.50
2022-11-02T23:09:11.026Z,7.60
2022-11-02T23:11:38.323Z,7.50
2022-11-02T23:14:15.353Z,7.50
2022-11-02T23:16:47.353Z,7.50
2022-11-02T23:19:23.515Z,7.50
2022-11-02T23:21:57.203Z,7.40
2022-11-02T23:24:24.230Z,7.40
2022-11-02T23:26:51.660Z,7.40
2022-11-02T23:29:19.201Z,7.30
2022-11-02T23:31:46.345Z,7.30
2022-11-02T23:34:15.917Z,7.30
2022-11-02T23:36:43.337Z,7.30
2022-11-02T23:39:10.736Z,7.20
2022-11-02T23:41:37.869Z,7.30
2022-11-02T23:44:07.584Z,7.20
2022-11-02T23:46:38.139Z,7.20
2022-11-02T23:49:05.187Z,7.20
2022-11-02T23:51:32.757Z,7.20
2022-11-02T23:54:02.230Z,7.10
2022-11-02T23:56:30.313Z,7.10
2022-11-02T23:58:57.740Z,7.10
